Time;durP1;ratioP1;P1;durP2;ratioP2;P2;SDS_P1;SDS_P2;PMS_P1;PMS_P2;Temp;Humidity;BMP_temperature;BMP_pressure;BME280_temperature;BME280_humidity;BME280_pressure;Samples;Min_cycle;Max_cycle;Signal;HPM_P1;HPM_P2
2023/03/09 00:00:21;;;;;;;44.40;23.10;;;;;;;5.51;100.00;98416.41;4970700;28;20075;-59
2023/03/09 00:02:47;;;;;;;42.10;22.98;;;;;;;5.56;100.00;98420.53;4980972;28;20026;-59
2023/03/09 00:05:16;;;;;;;44.63;22.85;;;;;;;5.59;100.00;98411.91;4979286;28;20081;-59
2023/03/09 00:07:42;;;;;;;35.10;20.30;;;;;;;5.62;100.00;98422.94;4976261;28;20046;-60
2023/03/09 00:10:10;;;;;;;39.63;22.58;;;;;;;5.66;100.00;98427.13;4971210;28;20137;-59
2023/03/09 00:12:35;;;;;;;44.95;22.35;;;;;;;5.68;100.00;98447.56;4975651;28;20042;-58
2023/03/09 00:15:01;;;;;;;36.95;20.45;;;;;;;5.69;100.00;98455.19;4969564;28;20056;-59
2023/03/09 00:17:26;;;;;;;34.15;19.55;;;;;;;5.70;100.00;98451.75;4970746;28;20113;-59
2023/03/09 00:20:00;;;;;;;37.38;20.70;;;;;;;5.70;100.00;98472.25;4969949;28;20046;-59
2023/03/09 00:22:26;;;;;;;36.70;20.33;;;;;;;5.71;100.00;98467.97;4990919;28;20049;-58
2023/03/09 00:24:53;;;;;;;37.70;20.77;;;;;;;5.70;100.00;98479.94;4981540;28;20656;-58
2023/03/09 00:27:19;;;;;;;35.25;20.98;;;;;;;5.72;100.00;98477.38;4970534;28;20045;-59
2023/03/09 00:29:44;;;;;;;40.78;22.65;;;;;;;5.71;100.00;98470.53;4970391;28;20065;-58
2023/03/09 00:32:09;;;;;;;41.05;23.98;;;;;;;5.68;100.00;98481.72;4970532;28;20029;-61
2023/03/09 00:34:35;;;;;;;39.00;22.85;;;;;;;5.67;100.00;98467.22;4967792;28;20187;-58
2023/03/09 00:37:00;;;;;;;43.67;23.92;;;;;;;5.63;100.00;98454.53;4969207;28;20034;-58
2023/03/09 00:39:26;;;;;;;37.55;22.35;;;;;;;5.58;100.00;98452.06;4969034;28;20038;-59
2023/03/09 00:41:51;;;;;;;35.15;22.02;;;;;;;5.52;100.00;98452.22;4967063;28;20145;-59
2023/03/09 00:44:16;;;;;;;42.15;23.42;;;;;;;5.47;100.00;98461.75;4973928;28;20562;-58
2023/03/09 00:46:42;;;;;;;44.17;23.52;;;;;;;5.47;100.00;98463.47;4975032;28;20046;-59
2023/03/09 00:49:11;;;;;;;44.55;23.02;;;;;;;5.47;100.00;98459.19;4968272;28;20081;-59
2023/03/09 00:51:37;;;;;;;42.00;23.48;;;;;;;5.47;100.00;98463.47;4983588;28;20045;-59
2023/03/09 00:54:03;;;;;;;41.78;21.58;;;;;;;5.46;100.00;98485.69;4991204;28;20092;-59
2023/03/09 00:56:29;;;;;;;51.38;24.98;;;;;;;5.44;100.00;98476.34;4977459;28;20022;-60
2023/03/09 00:58:56;;;;;;;47.88;24.35;;;;;;;5.42;100.00;98475.56;4975123;28;20512;-66
2023/03/09 01:01:22;;;;;;;45.30;24.15;;;;;;;5.41;100.00;98477.28;4979231;28;20046;-67
2023/03/09 01:03:48;;;;;;;49.28;25.08;;;;;;;5.42;100.00;98486.66;4973744;28;20069;-67
2023/03/09 01:06:14;;;;;;;48.33;25.58;;;;;;;5.43;100.00;98474.69;4976274;28;20125;-67
2023/03/09 01:08:39;;;;;;;47.03;24.40;;;;;;;5.43;100.00;98484.94;4977676;28;20035;-67
2023/03/09 01:11:11;;;;;;;54.17;25.73;;;;;;;5.45;100.00;98472.94;4973950;28;20499;-67
2023/03/09 01:13:37;;;;;;;51.20;25.70;;;;;;;5.47;100.00;98477.13;4979600;28;20042;-68
2023/03/09 01:16:03;;;;;;;49.63;25.27;;;;;;;5.47;100.00;98469.44;4969720;28;20446;-66
2023/03/09 01:18:29;;;;;;;54.72;25.45;;;;;;;5.45;100.00;98471.22;4976887;28;20142;-68
2023/03/09 01:20:54;;;;;;;52.78;25.63;;;;;;;5.47;100.00;98481.41;4974425;28;20034;-66
2023/03/09 01:23:20;;;;;;;41.40;22.08;;;;;;;5.50;100.00;98486.47;4976909;28;21829;-66
2023/03/09 01:25:45;;;;;;;50.55;23.90;;;;;;;5.52;100.00;98485.53;4978016;28;20104;-66
2023/03/09 01:28:11;;;;;;;52.90;23.25;;;;;;;5.55;100.00;98498.28;4974958;28;20038;-67
2023/03/09 01:30:37;;;;;;;49.30;24.73;;;;;;;5.58;100.00;98513.56;4981204;28;20054;-60
2023/03/09 01:33:02;;;;;;;57.58;27.75;;;;;;;5.59;100.00;98520.38;4978841;28;20121;-60
2023/03/09 01:35:28;;;;;;;58.30;27.00;;;;;;;5.63;100.00;98516.03;4973067;28;20769;-59
2023/03/09 01:37:53;;;;;;;57.28;27.55;;;;;;;5.66;100.00;98518.53;4970019;28;20703;-60
2023/03/09 01:40:22;;;;;;;49.70;25.23;;;;;;;5.67;100.00;98518.47;4983696;28;20034;-60
2023/03/09 01:42:55;;;;;;;50.53;25.70;;;;;;;5.70;100.00;98515.00;4980421;28;20030;-60
2023/03/09 01:45:20;;;;;;;58.20;25.10;;;;;;;5.70;100.00;98508.16;4973097;28;20093;-60
2023/03/09 01:47:46;;;;;;;56.40;25.35;;;;;;;5.71;100.00;98516.69;4969998;28;20062;-60
2023/03/09 01:50:14;;;;;;;41.78;21.85;;;;;;;5.68;100.00;98522.72;4973333;28;20033;-60
2023/03/09 01:52:42;;;;;;;43.35;21.92;;;;;;;5.70;100.00;98520.13;4981267;28;20048;-60
2023/03/09 01:55:13;;;;;;;49.00;21.60;;;;;;;5.71;100.00;98507.28;4978341;28;20041;-60
2023/03/09 01:57:44;;;;;;;43.95;21.33;;;;;;;5.74;100.00;98511.47;4977788;28;20065;-60
2023/03/09 02:00:12;;;;;;;38.05;20.02;;;;;;;5.76;100.00;98519.97;4972849;28;20038;-60
2023/03/09 02:02:40;;;;;;;41.10;21.02;;;;;;;5.78;100.00;98523.34;4975556;28;20065;-60
2023/03/09 02:05:09;;;;;;;40.90;21.52;;;;;;;5.79;100.00;98522.44;4969983;28;20023;-61
2023/03/09 02:07:38;;;;;;;45.53;23.38;;;;;;;5.84;100.00;98522.34;4973524;28;20052;-61
2023/03/09 02:10:17;;;;;;;39.25;20.33;;;;;;;5.84;100.00;98530.03;4966418;28;20035;-61
2023/03/09 02:12:53;;;;;;;45.15;21.70;;;;;;;5.85;100.00;98521.44;4976801;28;20446;-61
2023/03/09 02:15:20;;;;;;;;;;;;;;;5.85;100.00;98527.41;4983991;28;20073;-61
2023/03/09 02:17:46;;;;;;;38.72;20.75;;;;;;;5.85;100.00;98524.84;4983903;28;20015;-61
2023/03/09 02:20:51;;;;;;;38.30;20.13;;;;;;;5.83;100.00;98524.06;4971662;28;20084;-62
2023/03/09 02:23:39;;;;;;;35.90;19.23;;;;;;;5.81;100.00;98540.38;4989603;28;20053;-60
2023/03/09 02:26:11;;;;;;;31.58;16.63;;;;;;;5.76;100.00;98556.69;4974731;28;22091;-61
2023/03/09 02:28:36;;;;;;;36.78;20.38;;;;;;;5.79;100.00;98566.03;4975353;28;20038;-61
2023/03/09 02:31:02;;;;;;;37.92;19.65;;;;;;;5.80;100.00;98570.28;4981738;28;20101;-61
2023/03/09 02:33:30;;;;;;;34.55;18.17;;;;;;;5.84;100.00;98587.28;4976181;28;20042;-61
2023/03/09 02:35:57;;;;;;;44.97;20.90;;;;;;;5.91;100.00;98599.06;4973624;28;20589;-61
2023/03/09 02:38:24;;;;;;;40.20;21.60;;;;;;;5.99;100.00;98609.97;4991019;28;20030;-62
2023/03/09 02:40:50;;;;;;;44.90;23.55;;;;;;;6.02;100.00;98621.88;4972178;28;20038;-63
2023/03/09 02:43:23;;;;;;;54.40;24.15;;;;;;;6.08;100.00;98626.88;4969873;28;20042;-61
2023/03/09 02:45:49;;;;;;;49.25;24.27;;;;;;;6.12;100.00;98625.91;4978546;28;20041;-62
2023/03/09 02:48:15;;;;;;;53.40;24.33;;;;;;;6.16;100.00;98642.91;4970399;28;20042;-62
2023/03/09 02:50:41;;;;;;;53.08;24.27;;;;;;;6.18;100.00;98636.84;4977680;28;20185;-61
2023/03/09 02:53:06;;;;;;;38.50;18.70;;;;;;;6.20;100.00;98645.34;4978234;28;20037;-61
2023/03/09 02:55:31;;;;;;;49.80;24.25;;;;;;;6.25;100.00;98648.66;4974029;28;20080;-61
2023/03/09 02:57:57;;;;;;;45.65;21.98;;;;;;;6.29;100.00;98655.38;4973577;28;20562;-62
2023/03/09 03:00:23;;;;;;;42.00;20.90;;;;;;;6.44;100.00;98661.03;4973952;28;20689;-62
2023/03/09 03:02:49;;;;;;;41.05;19.90;;;;;;;6.50;100.00;98669.38;4976615;28;20038;-62
2023/03/09 03:05:14;;;;;;;42.92;17.67;;;;;;;6.59;100.00;98679.41;4977771;28;20097;-62
2023/03/09 03:07:40;;;;;;;41.05;17.80;;;;;;;6.69;100.00;98688.59;4974210;28;20447;-62
2023/03/09 03:10:06;;;;;;;41.90;20.75;;;;;;;6.71;100.00;98694.50;4962751;28;20837;-62
2023/03/09 03:12:31;;;;;;;41.90;21.65;;;;;;;6.63;100.00;98688.75;4974511;28;20031;-62
2023/03/09 03:14:57;;;;;;;47.15;22.40;;;;;;;6.59;100.00;98688.84;4976971;28;20664;-62
2023/03/09 03:17:22;;;;;;;44.58;23.00;;;;;;;6.50;100.00;98692.47;4980262;28;20042;-62
2023/03/09 03:19:48;;;;;;;45.63;22.85;;;;;;;6.44;100.00;98687.50;4972700;28;20065;-63
2023/03/09 03:22:13;;;;;;;47.42;25.00;;;;;;;6.40;100.00;98698.75;4972212;28;20046;-62
2023/03/09 03:24:39;;;;;;;52.10;28.08;;;;;;;6.34;100.00;98712.56;4977916;28;20520;-62
2023/03/09 03:27:05;;;;;;;57.58;27.35;;;;;;;6.31;100.00;98719.50;4975546;28;20042;-62
2023/03/09 03:29:30;;;;;;;53.97;26.15;;;;;;;6.28;100.00;98728.09;4973330;28;20049;-62
2023/03/09 03:31:56;;;;;;;52.38;26.67;;;;;;;6.29;100.00;98734.06;4975188;28;20034;-61
2023/03/09 03:34:21;;;;;;;60.15;28.23;;;;;;;6.27;100.00;98740.97;4974548;28;20034;-62
2023/03/09 03:36:47;;;;;;;45.60;25.02;;;;;;;6.25;100.00;98743.56;4978690;28;20558;-61
2023/03/09 03:39:12;;;;;;;52.70;26.25;;;;;;;6.26;100.00;98749.53;4977520;28;20034;-62
2023/03/09 03:41:37;;;;;;;53.40;26.33;;;;;;;6.26;100.00;98755.50;4968841;28;20465;-62
2023/03/09 03:44:03;;;;;;;53.80;25.15;;;;;;;6.24;100.00;98762.41;4976925;28;20125;-62
2023/03/09 03:46:30;;;;;;;53.78;24.38;;;;;;;6.21;100.00;98771.88;4972359;28;20042;-62
2023/03/09 03:48:55;;;;;;;50.45;25.02;;;;;;;6.15;100.00;98785.69;4973307;28;20034;-63
2023/03/09 03:51:21;;;;;;;53.85;26.23;;;;;;;6.09;100.00;98777.28;4972828;28;20408;-62
2023/03/09 03:53:46;;;;;;;44.92;22.90;;;;;;;6.06;100.00;98780.75;4982690;28;20037;-62
2023/03/09 03:56:11;;;;;;;46.35;23.48;;;;;;;6.03;100.00;98782.53;4980459;28;20029;-63
2023/03/09 03:58:37;;;;;;;47.90;23.25;;;;;;;6.00;100.00;98782.59;4973312;28;20846;-63
2023/03/09 04:01:02;;;;;;;48.03;23.38;;;;;;;5.99;100.00;98791.19;4972259;28;20042;-63
2023/03/09 04:03:28;;;;;;;41.63;21.35;;;;;;;5.96;100.00;98794.66;4968771;28;20559;-63
2023/03/09 04:05:53;;;;;;;49.72;21.75;;;;;;;5.91;100.00;98803.31;4967623;28;20757;-63
2023/03/09 04:08:18;;;;;;;50.75;21.23;;;;;;;5.91;100.00;98795.63;4967250;28;20034;-63
2023/03/09 04:10:44;;;;;;;43.67;22.05;;;;;;;5.88;100.00;98806.78;4967555;28;20462;-64
2023/03/09 04:13:09;;;;;;;49.85;23.58;;;;;;;5.87;100.00;98809.41;4970449;28;20066;-63
2023/03/09 04:15:35;;;;;;;52.53;23.40;;;;;;;5.85;100.00;98806.84;4973779;28;20034;-64
2023/03/09 04:18:00;;;;;;;49.53;22.05;;;;;;;5.83;100.00;98818.03;4972298;28;20052;-62
2023/03/09 04:20:26;;;;;;;47.65;22.77;;;;;;;5.82;100.00;98822.31;4974718;28;20028;-62
2023/03/09 04:22:52;;;;;;;48.20;21.98;;;;;;;5.82;100.00;98808.63;4971399;28;20058;-63
2023/03/09 04:25:17;;;;;;;53.97;23.40;;;;;;;5.78;100.00;98823.25;4974323;28;20085;-63
2023/03/09 04:27:43;;;;;;;52.70;23.73;;;;;;;5.78;100.00;98825.81;4967259;28;20169;-63
2023/03/09 04:30:10;;;;;;;50.45;22.95;;;;;;;5.75;100.00;98829.25;4973607;28;20415;-64
2023/03/09 04:32:35;;;;;;;48.45;21.60;;;;;;;5.74;100.00;98835.28;4978913;28;20027;-64
2023/03/09 04:35:01;;;;;;;41.75;20.58;;;;;;;5.73;100.00;98833.59;4982019;28;20103;-63
2023/03/09 04:37:26;;;;;;;44.00;21.20;;;;;;;5.71;100.00;98837.06;4963502;28;20043;-63
2023/03/09 04:39:52;;;;;;;50.10;22.90;;;;;;;5.68;100.00;98843.09;4966383;28;20130;-64
2023/03/09 04:42:17;;;;;;;53.58;22.80;;;;;;;5.65;100.00;98845.72;4964799;28;20072;-63
2023/03/09 04:44:43;;;;;;;49.40;23.60;;;;;;;5.63;100.00;98850.03;4973762;28;20054;-64
2023/03/09 04:47:12;;;;;;;50.03;23.00;;;;;;;5.61;100.00;98841.50;4969791;28;20034;-62
2023/03/09 04:49:38;;;;;;;54.42;24.23;;;;;;;5.59;100.00;98853.53;4971832;28;20051;-62
2023/03/09 04:52:04;;;;;;;50.55;22.25;;;;;;;5.58;100.00;98844.13;4976311;28;20038;-63
2023/03/09 04:54:29;;;;;;;55.35;23.83;;;;;;;5.59;100.00;98848.41;4974257;28;20045;-62
2023/03/09 04:56:55;;;;;;;53.30;23.25;;;;;;;5.58;100.00;98851.81;4975947;28;20693;-63
2023/03/09 04:59:20;;;;;;;52.60;22.15;;;;;;;5.58;100.00;98854.38;4974505;28;20155;-61
2023/03/09 05:01:45;;;;;;;53.28;22.38;;;;;;;5.58;100.00;98859.50;4972077;28;20745;-61
2023/03/09 05:04:11;;;;;;;56.42;23.88;;;;;;;5.56;100.00;98858.72;4973129;28;20444;-67
2023/03/09 05:06:36;;;;;;;54.97;23.45;;;;;;;5.55;100.00;98874.09;4967684;28;20192;-66
2023/03/09 05:09:03;;;;;;;52.83;22.80;;;;;;;5.56;100.00;98871.53;4969049;28;20046;-67
2023/03/09 05:11:29;;;;;;;61.03;24.70;;;;;;;5.55;100.00;98879.22;4967813;28;20034;-66
2023/03/09 05:13:54;;;;;;;62.60;24.05;;;;;;;5.55;100.00;98881.78;4974586;28;20035;-66
2023/03/09 05:16:19;;;;;;;56.60;23.23;;;;;;;5.54;100.00;98878.41;4973030;28;20153;-67
2023/03/09 05:18:48;;;;;;;54.60;23.70;;;;;;;5.53;100.00;98879.25;4976405;28;20740;-67
2023/03/09 05:21:14;;;;;;;61.50;24.77;;;;;;;5.53;100.00;98888.66;4972431;28;20038;-67
2023/03/09 05:23:39;;;;;;;55.90;24.08;;;;;;;5.53;100.00;98892.06;4979565;28;20081;-67
2023/03/09 05:26:07;;;;;;;53.10;23.80;;;;;;;5.54;100.00;98892.94;4988660;28;20543;-66
2023/03/09 05:28:36;;;;;;;53.90;23.92;;;;;;;5.52;100.00;98895.50;4976014;28;20542;-67
2023/03/09 05:31:02;;;;;;;62.40;24.00;;;;;;;5.52;100.00;98895.50;4982023;28;20042;-67
2023/03/09 05:33:28;;;;;;;58.47;24.17;;;;;;;5.52;100.00;98889.53;4979329;28;20031;-67
2023/03/09 05:35:53;;;;;;;57.63;24.13;;;;;;;5.51;100.00;98885.28;4976828;28;20049;-66
2023/03/09 05:38:19;;;;;;;62.10;24.83;;;;;;;5.50;100.00;98886.16;4995999;28;20026;-66
2023/03/09 05:40:44;;;;;;;62.88;26.17;;;;;;;5.49;100.00;98882.75;4998061;28;20041;-66
2023/03/09 05:43:10;;;;;;;52.15;24.23;;;;;;;5.48;100.00;98886.19;4982175;28;20050;-67
2023/03/09 05:45:36;;;;;;;61.50;23.70;;;;;;;5.49;100.00;98890.44;4973033;28;20034;-67
2023/03/09 05:48:01;;;;;;;54.83;22.90;;;;;;;5.49;100.00;98895.56;4976969;28;20042;-67
2023/03/09 05:50:27;;;;;;;58.15;24.48;;;;;;;5.49;100.00;98907.50;4978564;28;20034;-67
2023/03/09 05:52:52;;;;;;;62.03;24.65;;;;;;;5.44;100.00;98906.75;4975848;28;20117;-66
2023/03/09 05:55:17;;;;;;;55.55;23.85;;;;;;;5.36;100.00;98919.72;4978229;28;20084;-67
2023/03/09 05:57:43;;;;;;;61.65;24.45;;;;;;;5.33;100.00;98931.72;4979309;28;20037;-67
2023/03/09 06:00:12;;;;;;;52.70;22.92;;;;;;;5.31;100.00;98949.66;4971037;28;20038;-67
2023/03/09 06:02:37;;;;;;;66.75;25.80;;;;;;;5.26;100.00;98938.66;4969715;28;20431;-65
2023/03/09 06:05:03;;;;;;;61.50;23.52;;;;;;;5.25;100.00;98946.38;4977734;28;20041;-66
2023/03/09 06:07:28;;;;;;;58.47;23.90;;;;;;;5.21;100.00;98963.50;4970661;28;20038;-66
2023/03/09 06:09:54;;;;;;;64.93;22.88;;;;;;;5.18;100.00;98932.81;4973505;28;20072;-67
2023/03/09 06:12:20;;;;;;;58.55;22.27;;;;;;;5.16;100.00;98947.38;4974614;28;20125;-67
2023/03/09 06:14:51;;;;;;;61.28;21.92;;;;;;;5.16;100.00;98952.50;4973687;28;20042;-66
2023/03/09 06:17:16;;;;;;;50.13;21.33;;;;;;;5.13;100.00;98953.38;4972027;28;20037;-67
2023/03/09 06:19:42;;;;;;;55.38;22.42;;;;;;;5.10;100.00;98961.09;4970527;28;20046;-66
2023/03/09 06:22:07;;;;;;;59.97;23.48;;;;;;;5.12;100.00;98956.81;4974341;28;20039;-67
2023/03/09 06:24:32;;;;;;;48.75;20.83;;;;;;;5.12;100.00;98958.53;4976152;28;20047;-67
2023/03/09 06:26:58;;;;;;;50.42;20.92;;;;;;;5.09;100.00;98954.31;4977720;28;20038;-67
2023/03/09 06:29:27;;;;;;;47.65;21.13;;;;;;;5.05;100.00;98962.03;4981149;28;20026;-67
2023/03/09 06:31:52;;;;;;;46.95;20.90;;;;;;;5.02;100.00;98964.66;4974044;28;20030;-67
2023/03/09 06:34:18;;;;;;;49.85;19.92;;;;;;;5.02;100.00;98974.88;4979304;28;20034;-67
2023/03/09 06:36:43;;;;;;;50.97;21.08;;;;;;;5.04;100.00;98985.97;4967680;28;20054;-67
2023/03/09 06:39:09;;;;;;;48.55;20.77;;;;;;;5.04;100.00;98991.91;4970125;28;20038;-67
2023/03/09 06:41:35;;;;;;;47.40;19.42;;;;;;;5.06;100.00;98981.66;4965828;28;20573;-67
2023/03/09 06:44:02;;;;;;;49.58;20.45;;;;;;;5.07;100.00;98985.94;4973772;28;20283;-67
2023/03/09 06:46:27;;;;;;;54.47;20.95;;;;;;;5.08;100.00;98985.03;4971919;28;20116;-68
2023/03/09 06:48:53;;;;;;;46.50;19.88;;;;;;;5.05;100.00;98974.84;4967748;28;20512;-68
2023/03/09 06:51:19;;;;;;;55.05;22.48;;;;;;;5.07;100.00;98991.88;4981929;28;20400;-68
2023/03/09 06:53:44;;;;;;;57.22;20.52;;;;;;;5.11;100.00;98996.09;4978654;28;20110;-68
2023/03/09 06:56:10;;;;;;;52.90;21.60;;;;;;;5.19;100.00;99003.63;4974151;28;20026;-68
2023/03/09 06:58:36;;;;;;;55.53;20.38;;;;;;;5.24;100.00;99009.56;4977167;28;20038;-69
2023/03/09 07:01:12;;;;;;;50.58;19.30;;;;;;;5.27;100.00;99011.22;4971560;28;20045;-67
2023/03/09 07:03:39;;;;;;;48.25;20.77;;;;;;;5.22;100.00;99012.13;4972313;28;20045;-67
2023/03/09 07:06:05;;;;;;;50.78;19.77;;;;;;;5.22;100.00;99034.31;4974804;28;20214;-67
2023/03/09 07:08:30;;;;;;;48.88;20.65;;;;;;;5.19;100.00;99039.50;4970919;28;20034;-62
2023/03/09 07:10:56;;;;;;;48.33;19.75;;;;;;;5.18;100.00;99041.25;4976302;28;20046;-68
2023/03/09 07:13:21;;;;;;;49.15;19.92;;;;;;;5.17;100.00;99046.38;4976862;28;20062;-67
2023/03/09 07:15:47;;;;;;;44.97;18.77;;;;;;;5.12;100.00;99054.13;4974010;28;20038;-66
2023/03/09 07:18:12;;;;;;;42.80;18.00;;;;;;;5.09;100.00;99061.84;4971329;28;20393;-67
2023/03/09 07:20:39;;;;;;;32.58;15.43;;;;;;;5.13;100.00;99062.66;4968427;28;20081;-66
2023/03/09 07:23:05;;;;;;;39.78;17.08;;;;;;;5.08;100.00;99078.06;4972910;28;20452;-67
2023/03/09 07:25:34;;;;;;;33.05;15.98;;;;;;;5.10;100.00;99083.19;4970531;28;20407;-67
2023/03/09 07:28:01;;;;;;;33.92;14.60;;;;;;;5.07;100.00;99086.63;4970599;28;20037;-68
2023/03/09 07:30:28;;;;;;;30.52;14.77;;;;;;;5.08;100.00;99088.31;4969552;28;20531;-67
2023/03/09 07:32:53;;;;;;;30.67;15.52;;;;;;;5.07;100.00;99094.28;4973968;28;20054;-66
2023/03/09 07:35:19;;;;;;;34.70;15.23;;;;;;;5.06;100.00;99104.56;4972347;28;20030;-67
2023/03/09 07:37:45;;;;;;;39.45;16.23;;;;;;;5.09;100.00;99112.22;4969183;28;20038;-67
2023/03/09 07:40:11;;;;;;;34.90;15.95;;;;;;;5.11;100.00;99102.78;4973362;28;20073;-66
2023/03/09 07:42:36;;;;;;;35.85;15.80;;;;;;;5.14;100.00;99103.59;4972712;28;20051;-67
2023/03/09 07:45:02;;;;;;;38.75;17.27;;;;;;;5.22;100.00;99111.16;4971374;28;20038;-67
2023/03/09 07:47:27;;;;;;;38.67;17.40;;;;;;;5.34;100.00;99117.88;4975020;28;20546;-66
2023/03/09 07:49:53;;;;;;;39.30;17.58;;;;;;;5.30;100.00;99113.66;4974741;28;20766;-67
2023/03/09 07:52:18;;;;;;;41.50;18.40;;;;;;;5.24;100.00;99122.25;4976108;28;20450;-66
2023/03/09 07:54:43;;;;;;;46.92;18.02;;;;;;;5.26;100.00;99120.50;4976534;28;20037;-67
2023/03/09 07:57:09;;;;;;;39.17;17.35;;;;;;;5.33;100.00;99131.53;4971521;28;20099;-68
2023/03/09 07:59:34;;;;;;;40.47;16.00;;;;;;;5.38;100.00;99133.16;4975353;28;20503;-67
2023/03/09 08:01:59;;;;;;;30.88;14.07;;;;;;;5.43;100.00;99133.94;4971851;28;20030;-68
2023/03/09 08:04:25;;;;;;;28.98;14.70;;;;;;;5.48;100.00;99145.00;4975224;28;20042;-68
2023/03/09 08:06:51;;;;;;;27.60;14.43;;;;;;;5.55;100.00;99143.16;4963861;28;20088;-67
2023/03/09 08:09:17;;;;;;;25.75;13.43;;;;;;;5.54;100.00;99139.78;4989251;28;20129;-68
2023/03/09 08:11:43;;;;;;;31.02;14.68;;;;;;;5.51;100.00;99147.50;4974056;28;20129;-66
2023/03/09 08:14:10;;;;;;;26.67;13.45;;;;;;;5.52;100.00;99153.47;4982112;28;20030;-67
2023/03/09 08:16:35;;;;;;;23.83;12.75;;;;;;;5.56;100.00;99160.25;4973810;28;20515;-66
2023/03/09 08:19:01;;;;;;;23.95;12.27;;;;;;;5.55;100.00;99151.72;4967578;28;20049;-66
2023/03/09 08:21:26;;;;;;;27.65;13.05;;;;;;;5.58;100.00;99161.91;4978809;28;20046;-67
2023/03/09 08:23:52;;;;;;;25.08;12.45;;;;;;;5.61;100.00;99168.72;4980928;28;20045;-67
2023/03/09 08:26:18;;;;;;;23.98;12.40;;;;;;;5.63;100.00;99172.97;4993812;28;20513;-67
2023/03/09 08:28:44;;;;;;;26.17;12.65;;;;;;;5.56;100.00;99183.31;4998586;28;20050;-66
2023/03/09 08:31:11;;;;;;;30.42;13.55;;;;;;;5.60;100.00;99185.81;4978152;28;20043;-67
2023/03/09 08:33:37;;;;;;;27.52;13.88;;;;;;;5.68;100.00;99184.00;4968494;28;20043;-68
2023/03/09 08:36:11;;;;;;;29.23;13.68;;;;;;;5.78;100.00;99182.97;4970320;28;20045;-67
2023/03/09 08:38:37;;;;;;;27.50;13.43;;;;;;;5.86;100.00;99190.56;4970021;28;20041;-67
2023/03/09 08:41:02;;;;;;;23.60;12.40;;;;;;;5.91;100.00;99180.25;4969595;28;20035;-66
2023/03/09 08:43:28;;;;;;;26.60;14.15;;;;;;;5.97;100.00;99190.41;4972851;28;20042;-66
2023/03/09 08:45:53;;;;;;;23.05;11.98;;;;;;;6.04;100.00;99189.44;4967837;28;20042;-67
2023/03/09 08:48:19;;;;;;;21.73;12.18;;;;;;;6.13;100.00;99189.31;4972325;28;20044;-67
2023/03/09 08:50:44;;;;;;;21.73;11.27;;;;;;;6.18;100.00;99205.47;4967864;28;20034;-68
2023/03/09 08:53:09;;;;;;;23.05;11.65;;;;;;;6.18;100.00;99216.59;4975547;28;20080;-67
2023/03/09 08:55:35;;;;;;;21.30;11.48;;;;;;;6.22;100.00;99215.69;4967614;28;20049;-67
2023/03/09 08:58:01;;;;;;;22.52;11.30;;;;;;;6.28;100.00;99219.84;4975377;28;20123;-67
2023/03/09 09:00:27;;;;;;;20.40;11.68;;;;;;;6.32;100.00;99227.47;4969652;28;20034;-67
2023/03/09 09:02:52;;;;;;;23.52;12.40;;;;;;;6.42;100.00;99227.31;4971403;28;20034;-67
2023/03/09 09:05:18;;;;;;;20.17;11.30;;;;;;;6.51;100.00;99220.31;4973116;28;20151;-67
2023/03/09 09:07:44;;;;;;;20.50;11.65;;;;;;;6.61;100.00;99221.88;4967510;28;20042;-66
2023/03/09 09:10:10;;;;;;;25.77;11.77;;;;;;;6.79;100.00;99223.28;4966557;28;20043;-66
2023/03/09 09:12:37;;;;;;;21.40;11.05;;;;;;;6.87;100.00;99231.69;4967790;28;20409;-66
2023/03/09 09:15:09;;;;;;;18.63;10.88;;;;;;;6.95;100.00;99229.81;4975054;28;20034;-67
2023/03/09 09:17:35;;;;;;;16.80;9.98;;;;;;;7.01;100.00;99233.97;4974644;28;20046;-67
2023/03/09 09:20:01;;;;;;;20.75;11.65;;;;;;;7.14;100.00;99245.72;4976476;28;20491;-67
2023/03/09 09:22:27;;;;;;;20.95;11.15;;;;;;;7.28;100.00;99249.75;4980019;28;20042;-67
2023/03/09 09:24:52;;;;;;;15.73;8.65;;;;;;;7.26;100.00;99248.09;4977336;28;20416;-67
2023/03/09 09:27:18;;;;;;;15.38;8.45;;;;;;;7.41;100.00;99260.66;4976653;28;20054;-67
2023/03/09 09:29:43;;;;;;;12.45;7.90;;;;;;;7.62;100.00;99259.38;4994355;28;20833;-66
2023/03/09 09:32:09;;;;;;;12.73;7.65;;;;;;;7.72;100.00;99259.16;4971728;28;20035;-67
2023/03/09 09:34:34;;;;;;;13.40;8.18;;;;;;;7.83;99.27;99258.94;4971591;28;20042;-68
2023/03/09 09:37:01;;;;;;;12.45;7.40;;;;;;;7.96;99.10;99265.50;4973465;28;20070;-68
2023/03/09 09:39:27;;;;;;;13.18;7.90;;;;;;;8.07;98.19;99265.28;4976849;28;20555;-68
2023/03/09 09:41:56;;;;;;;11.52;7.63;;;;;;;8.25;98.34;99277.75;4971435;28;20121;-68
2023/03/09 09:44:24;;;;;;;12.80;7.03;;;;;;;8.40;97.19;99274.78;4970645;28;20057;-69
2023/03/09 09:46:52;;;;;;;10.95;7.22;;;;;;;8.52;97.33;99284.78;4974244;28;20046;-69
2023/03/09 09:49:22;;;;;;;15.23;7.55;;;;;;;8.73;96.90;99286.84;4976403;28;20034;-67
2023/03/09 09:52:19;;;;;;;9.60;6.40;;;;;;;8.90;94.92;99287.28;4971778;28;20034;-68
2023/03/09 09:54:47;;;;;;;11.23;6.20;;;;;;;9.02;94.19;99286.97;4978191;28;20038;-68
2023/03/09 09:57:22;;;;;;;9.10;6.05;;;;;;;8.99;92.98;99296.53;4974939;28;20066;-70
2023/03/09 10:00:06;;;;;;;9.75;6.03;;;;;;;9.11;93.14;99285.88;4968664;28;20046;-69
2023/03/09 10:02:34;;;;;;;7.07;4.80;;;;;;;8.98;91.54;99290.53;4972779;28;20037;-70
2023/03/09 10:05:17;;;;;;;7.40;4.93;;;;;;;9.00;92.76;99287.91;4973569;28;20027;-72
2023/03/09 10:07:42;;;;;;;6.65;4.68;;;;;;;9.03;92.31;99290.41;4972845;28;20049;-70
2023/03/09 10:10:22;;;;;;;6.60;4.28;;;;;;;8.90;92.57;99297.59;4975148;28;20034;-70
2023/03/09 10:12:47;;;;;;;4.97;3.55;;;;;;;8.73;91.83;99299.75;4974851;28;20042;-71
2023/03/09 10:15:35;;;;;;;5.43;3.55;;;;;;;8.61;92.22;99305.19;4973165;28;20038;-71
2023/03/09 10:18:06;;;;;;;6.22;4.03;;;;;;;8.54;93.10;99304.47;4972053;28;20073;-70
2023/03/09 10:20:50;;;;;;;5.75;4.35;;;;;;;8.42;94.49;99322.81;4974626;28;20668;-70
2023/03/09 10:23:23;;;;;;;5.38;3.85;;;;;;;8.28;93.47;99316.25;4971055;28;20026;-71
2023/03/09 10:25:51;;;;;;;7.72;4.47;;;;;;;8.26;95.26;99330.88;4972151;28;20166;-69
2023/03/09 10:28:24;;;;;;;6.35;4.45;;;;;;;8.18;95.62;99332.78;4969889;28;20041;-70
2023/03/09 10:31:02;;;;;;;6.63;4.70;;;;;;;8.10;94.85;99339.84;4977787;28;20044;-70
2023/03/09 10:33:43;;;;;;;7.95;4.10;;;;;;;8.02;95.73;99340.84;4971294;28;20038;-69
2023/03/09 10:36:28;;;;;;;5.80;4.10;;;;;;;7.97;95.81;99339.25;4974560;28;20783;-69
2023/03/09 10:38:56;;;;;;;6.78;4.22;;;;;;;7.95;96.64;99352.13;4976294;28;20053;-70
2023/03/09 10:41:22;;;;;;;6.75;4.80;;;;;;;7.98;96.89;99352.06;4969398;28;20041;-69
2023/03/09 10:43:48;;;;;;;6.80;4.65;;;;;;;7.97;96.06;99355.53;4972924;28;20045;-69
2023/03/09 10:46:17;;;;;;;5.22;3.70;;;;;;;7.96;96.79;99353.81;4971947;28;20050;-68
2023/03/09 10:48:43;;;;;;;6.05;4.22;;;;;;;8.06;96.38;99361.34;4976137;28;20064;-70
2023/03/09 10:51:20;;;;;;;7.57;4.35;;;;;;;8.04;96.32;99350.25;4979232;28;20042;-68
2023/03/09 10:53:48;;;;;;;7.25;4.68;;;;;;;8.11;97.01;99360.38;4978541;28;20064;-69
2023/03/09 10:56:24;;;;;;;7.30;4.85;;;;;;;8.28;96.09;99353.13;4996093;28;20566;-69
2023/03/09 10:59:08;;;;;;;7.70;4.57;;;;;;;8.49;96.31;99359.53;4974625;28;20054;-69
2023/03/09 11:01:44;;;;;;;6.45;5.25;;;;;;;8.66;95.98;99356.59;4975071;28;20038;-69
2023/03/09 11:04:21;;;;;;;7.18;5.05;;;;;;;8.61;95.17;99361.84;4969144;28;20093;-69
2023/03/09 11:06:50;;;;;;;6.55;4.93;;;;;;;8.74;95.02;99363.25;4968139;28;20034;-69
2023/03/09 11:09:20;;;;;;;7.60;5.38;;;;;;;8.67;94.07;99366.84;4968398;28;20433;-69
2023/03/09 11:11:47;;;;;;;8.73;6.07;;;;;;;8.74;94.18;99368.41;4966841;28;20054;-69
2023/03/09 11:14:26;;;;;;;8.23;5.32;;;;;;;8.79;94.29;99366.56;4972285;28;20116;-69
2023/03/09 11:16:55;;;;;;;6.80;5.13;;;;;;;8.94;94.45;99357.63;4978944;28;20050;-70
2023/03/09 11:19:20;;;;;;;6.68;4.88;;;;;;;9.06;94.21;99344.44;4977505;28;20038;-69
2023/03/09 11:21:59;;;;;;;10.05;5.32;;;;;;;8.99;94.24;99338.59;4975013;28;20081;-69